createdAt,value
2024-02-29T00:08:38.632Z,21.9
2024-02-29T00:24:04.141Z,22.3
2024-02-29T00:39:28.604Z,22.2
2024-02-29T00:54:55.863Z,22.5
2024-02-29T01:10:21.185Z,20.9
2024-02-29T01:25:46.735Z,20.6
2024-02-29T01:41:11.722Z,21.4
2024-02-29T01:56:36.811Z,18.3
2024-02-29T02:12:01.341Z,19.4
2024-02-29T02:27:26.267Z,18.5
2024-02-29T02:42:51.160Z,18.7
2024-02-29T02:58:16.565Z,17.8
2024-02-29T03:13:41.878Z,16.9
2024-02-29T03:29:07.241Z,18.7
2024-02-29T03:44:31.805Z,19
2024-02-29T03:59:56.731Z,18.6
2024-02-29T04:15:21.174Z,18
2024-02-29T04:30:45.862Z,17.4
2024-02-29T04:46:11.670Z,17.1
2024-02-29T05:01:37.045Z,16.6
2024-02-29T05:17:02.873Z,16.5
2024-02-29T05:32:28.073Z,17.5
2024-02-29T05:47:53.275Z,17.4
2024-02-29T06:03:18.469Z,16.1
2024-02-29T06:18:43.588Z,17.3
2024-02-29T06:34:08.521Z,16.7
2024-02-29T06:49:33.959Z,16.1
2024-02-29T07:04:59.299Z,16.2
2024-02-29T07:20:28.881Z,15.3
2024-02-29T07:35:54.605Z,15.3
2024-02-29T07:51:20.298Z,14.9
2024-02-29T08:06:45.388Z,14.9
2024-02-29T08:22:11.106Z,14.6
2024-02-29T08:37:36.281Z,14.3
2024-02-29T08:53:00.969Z,14.6
2024-02-29T09:08:26.258Z,15.3
2024-02-29T09:23:51.757Z,15.2
2024-02-29T09:39:17.459Z,14
2024-02-29T09:54:42.873Z,14.2
2024-02-29T10:10:08.784Z,15.4
2024-02-29T10:25:34.084Z,14.4
2024-02-29T10:40:59.470Z,13.3
2024-02-29T10:56:24.909Z,15.5
2024-02-29T11:11:50.755Z,14.5
2024-02-29T11:27:15.592Z,14.4
2024-02-29T11:42:40.523Z,15.5
2024-02-29T11:58:05.924Z,14
2024-02-29T12:13:31.352Z,14.9
2024-02-29T12:29:00.806Z,14.1
2024-02-29T12:44:24.354Z,12.1
2024-02-29T12:59:50.363Z,9.2
2024-02-29T13:15:15.664Z,11
2024-02-29T13:30:41.680Z,9.9
2024-02-29T13:46:10.356Z,10.9
2024-02-29T14:01:36.390Z,11.1
2024-02-29T14:17:01.132Z,10.9
2024-02-29T14:32:26.017Z,11.8
2024-02-29T14:47:50.943Z,11.6
2024-02-29T15:03:15.895Z,10.5
2024-02-29T15:18:41.199Z,10.6
2024-02-29T15:34:06.220Z,10.9
2024-02-29T15:49:33.728Z,11.1
2024-02-29T16:04:58.737Z,11.1
2024-02-29T16:20:23.919Z,10.1
2024-02-29T16:35:49.004Z,10.2
2024-02-29T16:51:14.480Z,10
2024-02-29T17:06:39.772Z,10.4
2024-02-29T17:22:04.891Z,11.7
2024-02-29T17:37:31.216Z,11.3
2024-02-29T17:52:56.877Z,11.4
2024-02-29T18:08:21.674Z,10.8
2024-02-29T18:23:46.913Z,11.3
2024-02-29T18:39:15.411Z,11.2
2024-02-29T18:54:40.508Z,11
2024-02-29T19:10:05.948Z,10.8
2024-02-29T19:25:31.335Z,11.8
2024-02-29T19:40:56.283Z,11.4
2024-02-29T19:56:21.269Z,14.2
2024-02-29T20:11:46.725Z,12.8
2024-02-29T20:27:12.497Z,12.9
2024-02-29T20:42:37.520Z,13
2024-02-29T20:58:03.014Z,13.4
2024-02-29T21:13:29.236Z,15.2
2024-02-29T21:28:55.097Z,14.7
2024-02-29T21:44:20.839Z,14.8
2024-02-29T21:59:45.964Z,15.4
2024-02-29T22:15:11.474Z,15.6
2024-02-29T22:30:37.378Z,15.5
2024-02-29T22:46:02.680Z,15.8
2024-02-29T23:01:28.023Z,17.6
2024-02-29T23:16:53.173Z,17.2
2024-02-29T23:32:19.282Z,16.6
2024-02-29T23:47:44.918Z,16.9
